createdAt,value
2018-09-12T00:00:36.663Z,3.57
2018-09-12T00:03:04.027Z,2.80
2018-09-12T00:05:31.428Z,3.63
2018-09-12T00:07:58.812Z,3.20
2018-09-12T00:10:26.292Z,3.97
2018-09-12T00:12:53.682Z,4.70
2018-09-12T00:15:21.075Z,3.73
2018-09-12T00:17:48.453Z,3.40
2018-09-12T00:20:15.883Z,3.80
2018-09-12T00:22:43.279Z,3.33
2018-09-12T00:25:10.646Z,3.43
2018-09-12T00:27:38.035Z,4.17
2018-09-12T00:30:05.478Z,3.10
2018-09-12T00:32:32.861Z,3.27
2018-09-12T00:35:00.244Z,3.83
2018-09-12T00:37:27.622Z,3.33
2018-09-12T00:39:55.027Z,3.20
2018-09-12T00:42:22.433Z,2.97
2018-09-12T00:44:49.801Z,3.47
2018-09-12T00:47:17.186Z,2.97
2018-09-12T00:49:44.564Z,3.10
2018-09-12T00:52:11.984Z,3.07
2018-09-12T00:54:39.485Z,3.77
2018-09-12T00:57:06.966Z,3.67
2018-09-12T00:59:34.388Z,4.10
2018-09-12T01:02:02.183Z,3.33
2018-09-12T01:04:29.557Z,3.63
2018-09-12T01:06:56.962Z,3.17
2018-09-12T01:09:24.332Z,3.43
2018-09-12T01:11:51.713Z,3.53
2018-09-12T01:14:21.184Z,3.67
2018-09-12T01:16:53.180Z,3.70
2018-09-12T01:19:20.556Z,3.93
2018-09-12T01:21:48.571Z,3.57
2018-09-12T01:24:15.973Z,3.40
2018-09-12T01:26:44.567Z,4.30
2018-09-12T01:29:11.956Z,4.10
2018-09-12T01:31:39.316Z,3.53
2018-09-12T01:34:07.131Z,4.67
2018-09-12T01:36:34.523Z,3.80
2018-09-12T01:39:02.053Z,4.33
2018-09-12T01:41:29.444Z,3.80
2018-09-12T01:43:56.843Z,3.70
2018-09-12T01:46:24.210Z,3.40
2018-09-12T01:48:51.983Z,3.83
2018-09-12T01:51:19.426Z,4.33
2018-09-12T01:53:46.820Z,3.67
2018-09-12T01:56:14.231Z,3.87
2018-09-12T01:58:41.577Z,4.30
2018-09-12T02:01:09.092Z,4.17
2018-09-12T02:04:39.877Z,4.00
2018-09-12T02:07:07.269Z,4.50
2018-09-12T02:09:34.732Z,4.73
2018-09-12T02:12:02.185Z,4.30
2018-09-12T02:14:29.549Z,3.80
2018-09-12T02:16:56.992Z,5.07
2018-09-12T02:19:24.165Z,3.90
2018-09-12T02:21:51.573Z,5.40
2018-09-12T02:24:18.794Z,4.50
2018-09-12T02:26:45.972Z,4.00
2018-09-12T02:29:13.177Z,5.80
2018-09-12T02:31:40.368Z,4.80
2018-09-12T02:34:07.586Z,4.80
2018-09-12T02:36:34.836Z,4.30
2018-09-12T02:39:02.049Z,4.80
2018-09-12T02:41:29.268Z,4.03
2018-09-12T02:43:57.255Z,4.60
2018-09-12T02:46:24.466Z,4.60
2018-09-12T02:48:52.240Z,4.87
2018-09-12T02:51:19.504Z,4.70
2018-09-12T02:53:46.688Z,4.60
2018-09-12T02:56:13.869Z,4.00
2018-09-12T02:58:41.019Z,3.90
2018-09-12T03:04:20.483Z,4.37
2018-09-12T03:06:48.249Z,4.30
2018-09-12T03:09:15.660Z,4.07
2018-09-12T03:11:43.519Z,5.70
2018-09-12T03:14:11.243Z,4.10
2018-09-12T03:16:38.671Z,5.07
2018-09-12T03:19:06.145Z,5.10
2018-09-12T03:21:33.553Z,5.20
2018-09-12T03:24:01.019Z,5.40
2018-09-12T03:26:28.596Z,5.27
2018-09-12T03:28:56.027Z,5.50
2018-09-12T03:31:23.443Z,4.87
2018-09-12T03:33:50.950Z,6.57
2018-09-12T03:36:18.402Z,5.30
2018-09-12T03:38:45.815Z,4.90
2018-09-12T03:41:13.264Z,5.13
2018-09-12T03:43:40.695Z,5.70
2018-09-12T03:46:08.099Z,4.87
2018-09-12T03:48:35.503Z,5.13
2018-09-12T03:51:02.967Z,4.37
2018-09-12T03:53:30.408Z,4.73
2018-09-12T03:55:57.937Z,4.47
2018-09-12T03:58:25.417Z,5.00
2018-09-12T04:00:52.893Z,5.63
2018-09-12T04:03:20.360Z,4.60
2018-09-12T04:05:47.767Z,4.70
2018-09-12T04:08:15.208Z,4.33
2018-09-12T04:10:42.651Z,4.47
2018-09-12T04:13:10.852Z,4.80
2018-09-12T04:15:38.262Z,4.37
2018-09-12T04:18:05.724Z,4.60
2018-09-12T04:20:33.147Z,4.77
2018-09-12T04:23:00.609Z,4.43
2018-09-12T04:25:28.092Z,5.17
2018-09-12T04:27:55.571Z,4.40
2018-09-12T04:30:23.013Z,4.47
2018-09-12T04:32:50.436Z,5.70
2018-09-12T04:35:17.919Z,4.20
2018-09-12T04:37:45.377Z,4.37
2018-09-12T04:40:12.825Z,5.43
2018-09-12T04:42:40.310Z,4.70
2018-09-12T04:45:07.779Z,5.27
2018-09-12T04:47:35.015Z,4.43
2018-09-12T04:50:02.363Z,4.50
2018-09-12T04:52:32.459Z,4.93
2018-09-12T04:54:59.692Z,4.27
2018-09-12T04:57:26.924Z,5.47
2018-09-12T04:59:54.175Z,4.87
2018-09-12T05:02:21.503Z,5.20
2018-09-12T05:04:48.743Z,4.10
2018-09-12T05:07:16.006Z,5.10
2018-09-12T05:09:45.859Z,5.33
2018-09-12T05:12:13.243Z,4.80
2018-09-12T05:14:40.498Z,5.80
2018-09-12T05:17:07.779Z,5.30
2018-09-12T05:19:35.488Z,5.50
2018-09-12T05:22:03.047Z,4.70
2018-09-12T05:24:30.445Z,5.57
2018-09-12T05:26:57.865Z,6.10
2018-09-12T05:29:25.146Z,6.90
2018-09-12T05:31:52.406Z,5.70
2018-09-12T05:34:20.500Z,5.37
2018-09-12T05:36:49.747Z,6.37
2018-09-12T05:39:16.966Z,6.10
2018-09-12T05:41:44.206Z,6.40
2018-09-12T05:44:11.445Z,6.60
2018-09-12T05:46:38.694Z,5.90
2018-09-12T05:49:06.008Z,6.00
2018-09-12T05:51:33.366Z,6.93
2018-09-12T05:54:00.710Z,6.50
2018-09-12T05:56:27.935Z,7.33
2018-09-12T05:58:55.295Z,6.13
2018-09-12T06:01:22.636Z,6.77
2018-09-12T06:03:49.985Z,6.27
2018-09-12T06:06:17.279Z,6.07
2018-09-12T06:08:44.515Z,6.60
2018-09-12T06:11:11.823Z,6.50
2018-09-12T06:13:40.750Z,5.80
2018-09-12T06:16:07.984Z,6.60
2018-09-12T06:18:35.818Z,5.77
2018-09-12T06:21:03.119Z,6.70
2018-09-12T06:23:30.437Z,5.83
2018-09-12T06:25:57.775Z,6.03
2018-09-12T06:28:25.216Z,5.47
2018-09-12T06:30:52.606Z,6.20
2018-09-12T06:33:19.828Z,5.87
2018-09-12T06:35:47.091Z,6.00
2018-09-12T06:38:14.735Z,5.23
2018-09-12T06:40:42.028Z,5.67
2018-09-12T06:43:09.267Z,5.70
2018-09-12T06:45:36.827Z,5.90
2018-09-12T06:48:04.270Z,5.80
2018-09-12T06:50:31.584Z,5.70
2018-09-12T06:52:58.835Z,5.47
2018-09-12T06:55:26.264Z,5.80
2018-09-12T06:57:53.528Z,6.07
2018-09-12T07:00:20.795Z,6.93
2018-09-12T07:02:48.317Z,6.40
2018-09-12T07:05:15.620Z,6.53
2018-09-12T07:07:43.096Z,6.43
2018-09-12T07:10:10.200Z,6.70
2018-09-12T07:12:37.439Z,6.30
2018-09-12T07:15:04.836Z,7.20
2018-09-12T07:17:32.104Z,6.67
2018-09-12T07:19:59.360Z,6.70
2018-09-12T07:22:26.611Z,6.70
2018-09-12T07:24:53.881Z,6.63
2018-09-12T07:27:21.172Z,6.30
2018-09-12T07:29:48.507Z,7.23
2018-09-12T07:32:15.808Z,6.77
2018-09-12T07:34:43.076Z,6.90
2018-09-12T07:37:10.320Z,6.00
2018-09-12T07:39:37.627Z,6.27
2018-09-12T07:42:04.901Z,5.90
2018-09-12T07:44:32.316Z,6.50
2018-09-12T07:47:00.600Z,6.50
2018-09-12T07:49:27.914Z,6.37
2018-09-12T07:51:55.223Z,7.10
2018-09-12T07:54:22.455Z,7.03
2018-09-12T07:56:49.767Z,6.10
2018-09-12T07:59:17.056Z,6.97
2018-09-12T08:01:44.467Z,6.00
2018-09-12T08:04:11.715Z,6.60
2018-09-12T08:06:39.017Z,6.50
2018-09-12T08:09:08.845Z,7.23
2018-09-12T08:11:41.191Z,7.50
2018-09-12T08:14:08.538Z,6.93
2018-09-12T08:16:35.809Z,7.10
2018-09-12T08:19:03.260Z,6.90
2018-09-12T08:21:30.461Z,7.20
2018-09-12T08:24:01.617Z,7.10
2018-09-12T08:26:30.080Z,7.63
2018-09-12T08:28:57.848Z,7.97
2018-09-12T08:31:25.642Z,7.50
2018-09-12T08:33:52.877Z,7.80
2018-09-12T08:36:20.237Z,8.87
2018-09-12T08:38:50.795Z,10.83
2018-09-12T08:41:19.214Z,9.63
2018-09-12T08:43:46.499Z,9.00
2018-09-12T08:46:13.821Z,10.50
2018-09-12T08:48:41.092Z,11.47
2018-09-12T08:51:08.372Z,12.40
2018-09-12T08:53:40.679Z,11.80
2018-09-12T08:56:07.955Z,11.90
2018-09-12T08:58:35.368Z,11.73
2018-09-12T09:01:02.694Z,11.70
2018-09-12T09:03:29.981Z,10.90
2018-09-12T09:05:57.327Z,10.50
2018-09-12T09:08:24.718Z,9.20
2018-09-12T09:10:56.564Z,8.80
2018-09-12T09:13:24.055Z,10.00
2018-09-12T09:15:51.650Z,7.77
2018-09-12T09:18:18.876Z,7.33
2018-09-12T09:20:46.116Z,8.30
2018-09-12T09:23:13.419Z,6.80
2018-09-12T09:25:45.191Z,7.83
2018-09-12T09:28:12.413Z,6.57
2018-09-12T09:30:39.645Z,7.93
2018-09-12T09:33:06.867Z,6.30
2018-09-12T09:35:34.197Z,6.77
2018-09-12T09:38:01.339Z,6.50
2018-09-12T09:40:28.604Z,5.77
2018-09-12T09:42:58.199Z,5.57
2018-09-12T09:45:25.490Z,5.13
2018-09-12T09:47:52.751Z,5.50
2018-09-12T09:50:19.967Z,5.70
2018-09-12T09:52:47.189Z,6.00
2018-09-12T09:55:14.429Z,5.50
2018-09-12T09:57:41.655Z,4.50
2018-09-12T10:00:20.939Z,4.50
2018-09-12T10:02:53.903Z,4.73
2018-09-12T10:05:30.653Z,4.80
2018-09-12T10:08:06.778Z,4.50
2018-09-12T10:10:34.066Z,4.50
2018-09-12T10:13:01.413Z,4.20
2018-09-12T10:15:28.637Z,4.23
2018-09-12T10:17:55.939Z,4.60
2018-09-12T10:20:25.382Z,4.30
2018-09-12T10:22:52.625Z,4.17
2018-09-12T10:25:19.939Z,4.83
2018-09-12T10:27:47.167Z,4.33
2018-09-12T10:30:14.467Z,4.03
2018-09-12T10:32:41.684Z,4.60
2018-09-12T10:35:10.054Z,4.43
2018-09-12T10:37:37.295Z,4.67
2018-09-12T10:40:04.636Z,4.80
2018-09-12T10:42:31.880Z,4.37
2018-09-12T10:44:59.101Z,4.47
2018-09-12T10:47:26.304Z,5.47
2018-09-12T10:49:53.655Z,5.07
2018-09-12T10:52:22.008Z,5.23
2018-09-12T10:54:49.240Z,6.67
2018-09-12T10:57:16.575Z,5.80
2018-09-12T10:59:43.781Z,5.77
2018-09-12T11:02:11.019Z,6.20
2018-09-12T11:04:38.236Z,6.33
2018-09-12T11:07:07.897Z,5.80
2018-09-12T11:09:35.382Z,5.70
2018-09-12T11:12:02.782Z,6.07
2018-09-12T11:14:30.271Z,5.70
2018-09-12T11:16:57.739Z,6.80
2018-09-12T11:19:25.275Z,6.27
2018-09-12T11:21:57.961Z,5.93
2018-09-12T11:24:25.503Z,7.80
2018-09-12T11:26:53.340Z,6.83
2018-09-12T11:29:20.867Z,7.57
2018-09-12T11:31:48.341Z,6.80
2018-09-12T11:34:20.203Z,7.00
2018-09-12T11:36:47.585Z,6.20
2018-09-12T11:39:15.030Z,5.90
2018-09-12T11:41:42.471Z,7.40
2018-09-12T11:44:09.922Z,6.70
2018-09-12T11:46:42.515Z,6.83
2018-09-12T11:49:10.000Z,6.73
2018-09-12T11:51:37.473Z,5.27
2018-09-12T11:54:04.948Z,5.80
2018-09-12T11:56:32.367Z,6.67
2018-09-12T11:58:59.791Z,6.70
2018-09-12T12:01:28.603Z,5.60
2018-09-12T12:03:56.857Z,5.63
2018-09-12T12:06:24.314Z,5.00
2018-09-12T12:08:51.711Z,5.23
2018-09-12T12:11:19.222Z,5.33
2018-09-12T12:13:46.659Z,4.67
2018-09-12T12:16:14.075Z,4.67
2018-09-12T12:18:46.355Z,5.33
2018-09-12T12:21:13.802Z,5.30
2018-09-12T12:23:41.219Z,6.37
2018-09-12T12:26:08.618Z,5.90
2018-09-12T12:28:36.114Z,8.93
2018-09-12T12:31:03.547Z,9.57
2018-09-12T12:33:35.683Z,10.13
2018-09-12T12:36:03.184Z,10.23
2018-09-12T12:38:30.710Z,9.30
2018-09-12T12:40:58.252Z,8.77
2018-09-12T12:43:25.720Z,9.60
2018-09-12T12:45:53.171Z,9.00
2018-09-12T12:48:22.006Z,8.40
2018-09-12T12:50:49.422Z,8.57
2018-09-12T12:53:16.922Z,8.87
2018-09-12T12:55:44.351Z,8.40
2018-09-12T12:58:11.900Z,8.70
2018-09-12T13:00:44.115Z,8.40
2018-09-12T13:03:11.576Z,8.20
2018-09-12T13:05:39.116Z,6.70
2018-09-12T13:08:06.515Z,8.00
2018-09-12T13:10:34.000Z,6.90
2018-09-12T13:13:01.442Z,7.47
2018-09-12T13:15:33.280Z,7.97
2018-09-12T13:18:00.684Z,8.03
2018-09-12T13:20:28.095Z,6.10
2018-09-12T13:22:55.556Z,6.07
2018-09-12T13:25:23.012Z,6.00
2018-09-12T13:27:50.481Z,6.17
2018-09-12T13:30:24.556Z,6.97
2018-09-12T13:32:52.000Z,6.40
2018-09-12T13:35:19.486Z,6.60
2018-09-12T13:37:46.911Z,6.60
2018-09-12T13:40:14.354Z,6.47
2018-09-12T13:42:41.823Z,5.40
2018-09-12T13:45:11.808Z,4.73
2018-09-12T13:47:39.303Z,3.60
2018-09-12T13:50:06.732Z,3.60
2018-09-12T13:52:34.170Z,3.17
2018-09-12T13:55:01.657Z,3.17
2018-09-12T13:57:30.684Z,2.93
2018-09-12T14:00:01.645Z,3.40
2018-09-12T14:02:29.192Z,4.23
2018-09-12T14:04:56.602Z,4.10
2018-09-12T14:07:24.015Z,3.90
2018-09-12T14:09:51.458Z,4.40
2018-09-12T14:12:18.882Z,5.20
2018-09-12T14:14:48.932Z,4.90
2018-09-12T14:17:16.350Z,5.43
2018-09-12T14:19:43.755Z,5.00
2018-09-12T14:22:11.162Z,5.20
2018-09-12T14:24:38.615Z,4.57
2018-09-12T14:27:06.028Z,4.30
2018-09-12T14:29:33.484Z,4.90
2018-09-12T14:32:03.422Z,4.10
2018-09-12T14:34:30.861Z,5.00
2018-09-12T14:36:58.404Z,5.30
2018-09-12T14:39:25.924Z,6.13
2018-09-12T14:41:53.350Z,6.67
2018-09-12T14:44:22.024Z,7.00
2018-09-12T14:46:51.344Z,6.20
2018-09-12T14:49:18.836Z,6.47
2018-09-12T14:51:46.265Z,5.67
2018-09-12T14:54:13.737Z,5.70
2018-09-12T14:56:41.163Z,5.60
2018-09-12T14:59:10.995Z,4.67
2018-09-12T15:01:38.411Z,3.73
2018-09-12T15:04:05.931Z,4.30
2018-09-12T15:06:33.415Z,3.70
2018-09-12T15:09:00.887Z,3.37
2018-09-12T15:11:29.755Z,4.17
2018-09-12T15:14:04.079Z,4.70
2018-09-12T15:16:31.507Z,4.10
2018-09-12T15:18:59.036Z,3.43
2018-09-12T15:21:26.574Z,3.70
2018-09-12T15:23:54.029Z,3.57
2018-09-12T15:26:21.518Z,2.57
2018-09-12T15:28:48.952Z,2.90
2018-09-12T15:31:16.394Z,2.80
2018-09-12T15:33:43.979Z,2.10
2018-09-12T15:36:11.411Z,2.13
2018-09-12T15:38:38.853Z,1.93
2018-09-12T15:41:06.298Z,2.57
2018-09-12T15:43:33.728Z,2.93
2018-09-12T15:46:01.156Z,2.63
2018-09-12T15:48:28.571Z,2.83
2018-09-12T15:50:56.022Z,2.97
2018-09-12T15:53:23.463Z,3.43
2018-09-12T15:55:51.027Z,3.97
2018-09-12T15:58:18.652Z,4.77
2018-09-12T16:00:46.036Z,6.33
2018-09-12T16:03:13.440Z,4.07
2018-09-12T16:05:40.896Z,4.93
2018-09-12T16:08:08.328Z,4.43
2018-09-12T16:10:35.875Z,3.97
2018-09-12T16:13:03.323Z,5.70
2018-09-12T16:15:30.776Z,4.90
2018-09-12T16:17:58.699Z,4.80
2018-09-12T16:20:26.205Z,5.50
2018-09-12T16:22:53.666Z,5.37
2018-09-12T16:25:21.267Z,7.20
2018-09-12T16:27:48.729Z,6.40
2018-09-12T16:30:16.204Z,6.90
2018-09-12T16:32:43.683Z,7.63
2018-09-12T16:35:11.146Z,7.50
2018-09-12T16:37:38.587Z,7.27
2018-09-12T16:40:06.055Z,6.63
2018-09-12T16:42:33.472Z,7.73
2018-09-12T16:45:01.227Z,7.80
2018-09-12T16:47:28.760Z,8.43
2018-09-12T16:49:56.222Z,8.50
2018-09-12T16:52:23.752Z,7.73
2018-09-12T16:54:51.291Z,8.50
2018-09-12T16:57:18.674Z,9.00
2018-09-12T16:59:46.085Z,9.20
2018-09-12T17:02:13.604Z,11.07
2018-09-12T17:04:41.075Z,9.03
2018-09-12T17:07:08.515Z,10.13
2018-09-12T17:09:35.912Z,9.30
2018-09-12T17:12:03.396Z,8.67
2018-09-12T17:14:30.875Z,9.37
2018-09-12T17:16:58.423Z,8.27
2018-09-12T17:19:25.863Z,8.87
2018-09-12T17:21:53.535Z,8.67
2018-09-12T17:24:22.503Z,8.13
2018-09-12T17:26:49.857Z,8.73
2018-09-12T17:29:17.277Z,9.00
2018-09-12T17:31:44.767Z,10.33
2018-09-12T17:34:12.317Z,9.80
2018-09-12T17:36:39.705Z,10.83
2018-09-12T17:39:07.869Z,11.40
2018-09-12T17:41:35.414Z,10.40
2018-09-12T17:44:02.917Z,10.60
2018-09-12T17:46:30.355Z,11.57
2018-09-12T17:48:57.812Z,11.10
2018-09-12T17:51:25.244Z,9.93
2018-09-12T17:53:52.665Z,7.47
2018-09-12T17:56:20.073Z,6.87
2018-09-12T17:58:47.503Z,7.00
2018-09-12T18:01:15.024Z,7.13
2018-09-12T18:03:42.502Z,7.50
2018-09-12T18:06:09.972Z,6.80
2018-09-12T18:08:37.410Z,6.60
2018-09-12T18:11:04.903Z,10.80
2018-09-12T18:13:32.262Z,6.63
2018-09-12T18:15:59.671Z,6.13
2018-09-12T18:18:27.075Z,6.27
2018-09-12T18:20:54.483Z,6.23
2018-09-12T18:23:21.992Z,6.23
2018-09-12T18:25:49.374Z,5.63
2018-09-12T18:28:16.823Z,6.63
2018-09-12T18:30:44.270Z,6.60
2018-09-12T18:33:11.745Z,7.27
2018-09-12T18:35:39.490Z,7.20
2018-09-12T18:38:08.960Z,8.43
2018-09-12T18:40:36.448Z,8.30
2018-09-12T18:43:04.016Z,7.27
2018-09-12T18:45:31.479Z,7.90
2018-09-12T18:47:59.065Z,8.37
2018-09-12T18:50:26.555Z,7.90
2018-09-12T18:52:54.145Z,7.70
2018-09-12T18:55:21.899Z,7.70
2018-09-12T18:57:49.391Z,8.50
2018-09-12T19:00:16.821Z,8.37
2018-09-12T19:02:44.243Z,8.50
2018-09-12T19:05:11.817Z,8.97
2018-09-12T19:07:39.303Z,8.90
2018-09-12T19:10:06.831Z,9.37
2018-09-12T19:12:34.396Z,9.70
2018-09-12T19:15:01.854Z,9.43
2018-09-12T19:17:29.324Z,10.53
2018-09-12T19:19:56.928Z,10.60
2018-09-12T19:22:24.654Z,11.07
2018-09-12T19:24:52.110Z,11.53
2018-09-12T19:27:19.498Z,11.10
2018-09-12T19:29:47.013Z,13.27
2018-09-12T19:32:14.587Z,12.83
2018-09-12T19:34:42.047Z,12.77
2018-09-12T19:37:09.473Z,13.10
2018-09-12T19:39:37.069Z,13.70
2018-09-12T19:42:04.597Z,14.13
2018-09-12T19:44:32.115Z,14.23
2018-09-12T19:46:59.591Z,14.03
2018-09-12T19:49:27.155Z,15.20
2018-09-12T19:51:54.607Z,14.40
2018-09-12T19:54:22.139Z,13.30
2018-09-12T19:56:49.592Z,15.07
2018-09-12T19:59:17.210Z,14.93
2018-09-12T20:01:44.669Z,16.03
2018-09-12T20:04:12.230Z,17.00
2018-09-12T20:06:39.653Z,16.20
2018-09-12T20:09:08.542Z,15.83
2018-09-12T20:11:36.101Z,14.70
2018-09-12T20:14:03.544Z,15.83
2018-09-12T20:16:31.007Z,14.80
2018-09-12T20:18:58.577Z,16.73
2018-09-12T20:21:26.284Z,16.33
2018-09-12T20:23:53.968Z,15.43
2018-09-12T20:26:21.195Z,16.70
2018-09-12T20:28:49.392Z,15.27
2018-09-12T20:31:16.872Z,14.57
2018-09-12T20:33:44.493Z,15.23
2018-09-12T20:36:11.951Z,14.33
2018-09-12T20:38:39.330Z,16.27
2018-09-12T20:41:06.862Z,14.40
2018-09-12T20:43:34.363Z,15.40
2018-09-12T20:46:01.987Z,14.13
2018-09-12T20:48:29.424Z,13.97
2018-09-12T20:50:56.953Z,15.17
2018-09-12T20:53:24.392Z,14.10
2018-09-12T20:55:51.818Z,14.30
2018-09-12T20:58:19.847Z,15.00
2018-09-12T21:00:47.741Z,14.70
2018-09-12T21:03:15.241Z,15.57
2018-09-12T21:05:42.639Z,15.33
2018-09-12T21:08:10.451Z,15.27
2018-09-12T21:10:38.644Z,14.00
2018-09-12T21:13:06.767Z,15.70
2018-09-12T21:15:35.035Z,16.60
2018-09-12T21:18:02.596Z,15.67
2018-09-12T21:20:29.995Z,15.77
2018-09-12T21:22:57.449Z,16.63
2018-09-12T21:25:24.914Z,16.67
2018-09-12T21:27:52.990Z,14.33
2018-09-12T21:30:20.474Z,16.23
2018-09-12T21:32:48.102Z,17.00
2018-09-12T21:35:15.561Z,17.23
2018-09-12T21:37:42.987Z,16.77
2018-09-12T21:40:10.348Z,15.33
2018-09-12T21:42:37.726Z,16.03
2018-09-12T21:45:05.284Z,16.40
2018-09-12T21:47:32.806Z,15.70
2018-09-12T21:50:00.223Z,16.73
2018-09-12T21:52:28.336Z,16.40
2018-09-12T21:54:55.848Z,15.87
2018-09-12T21:57:23.431Z,14.73
2018-09-12T21:59:51.456Z,14.43
2018-09-12T22:02:18.849Z,15.30
2018-09-12T22:04:46.299Z,16.60
2018-09-12T22:07:13.731Z,14.90
2018-09-12T22:09:41.147Z,16.30
2018-09-12T22:12:08.551Z,16.70
2018-09-12T22:14:36.035Z,15.77
2018-09-12T22:17:03.509Z,14.97
2018-09-12T22:19:30.921Z,16.80
2018-09-12T22:21:58.359Z,16.80
2018-09-12T22:24:25.769Z,16.40
2018-09-12T22:26:54.315Z,16.70
2018-09-12T22:29:21.724Z,15.43
2018-09-12T22:31:49.142Z,17.30
2018-09-12T22:34:16.599Z,17.60
2018-09-12T22:36:43.982Z,16.93
2018-09-12T22:39:11.640Z,16.47
2018-09-12T22:41:39.771Z,16.83
2018-09-12T22:44:07.229Z,15.57
2018-09-12T22:46:34.651Z,15.93
2018-09-12T22:49:02.055Z,16.23
2018-09-12T22:51:29.461Z,15.57
2018-09-12T22:53:56.899Z,15.67
2018-09-12T22:56:25.088Z,14.70
2018-09-12T22:58:52.463Z,15.93
2018-09-12T23:01:19.878Z,14.00
2018-09-12T23:03:47.292Z,13.90
2018-09-12T23:06:16.459Z,12.80
2018-09-12T23:08:47.171Z,13.30
2018-09-12T23:11:14.584Z,13.00
2018-09-12T23:13:42.095Z,13.20
2018-09-12T23:16:11.844Z,13.30
2018-09-12T23:18:39.293Z,12.83
2018-09-12T23:21:06.699Z,13.47
2018-09-12T23:23:34.109Z,13.00
2018-09-12T23:26:01.547Z,13.30
2018-09-12T23:28:29.338Z,12.20
2018-09-12T23:30:56.862Z,13.17
2018-09-12T23:33:24.347Z,12.60
2018-09-12T23:35:51.786Z,11.63
2018-09-12T23:38:19.180Z,13.20
2018-09-12T23:40:46.590Z,12.87
2018-09-12T23:43:14.034Z,13.03
2018-09-12T23:45:41.458Z,12.17
2018-09-12T23:48:08.889Z,11.37
2018-09-12T23:50:37.963Z,10.90
2018-09-12T23:53:05.451Z,11.00
2018-09-12T23:55:32.865Z,11.63
2018-09-12T23:58:00.318Z,10.80
